Terminal Aerodrome Forecast
Issued by NWS

Home | Current Version | Previous Version | Text Only | Print | Product List | Glossary On
Versions: 1 2 3 4 5 6 7 8 9 10 11 12 13 14 15 16 17 18 19 20 21 22 23 24 25 26 27 28 29 30 31
000
FTUS45 KBOU 170316 AAA
TAFBJC
TAF AMD
KBJC 170316Z 1703/1724 32005KT P6SM FEW070 SCT140
     FM171500 VRB04KT P6SM SCT070 OVC120
     FM171800 01006KT P6SM VCSH SCT045 OVC070 PROB30 1718/1720 4SM
      -SN BKN030 OVC045
     FM172000 04007KT 4SM -SN BKN030 OVC045
      TEMPO 1720/1724 2SM -SN BR OVC025=

USA.gov is the U.S. government's official web portal to all federal, state and local government web resources and services.